createdAt,value
2022-08-30T00:00:12.592Z,44.21
2022-08-30T00:02:41.128Z,44.44
2022-08-30T00:05:10.423Z,44.29
2022-08-30T00:07:38.874Z,44.45
2022-08-30T00:10:10.587Z,44.51
2022-08-30T00:12:39.111Z,44.67
2022-08-30T00:15:09.377Z,44.78
2022-08-30T00:17:41.507Z,44.60
2022-08-30T00:20:15.382Z,44.83
2022-08-30T00:22:43.836Z,44.99
2022-08-30T00:25:15.477Z,45.14
2022-08-30T00:27:45.206Z,45.24
2022-08-30T00:30:16.605Z,45.32
2022-08-30T00:32:45.077Z,45.53
2022-08-30T00:35:20.986Z,46.66
2022-08-30T00:37:50.840Z,46.79
2022-08-30T00:40:27.132Z,45.59
2022-08-30T00:42:59.575Z,45.80
2022-08-30T00:45:32.892Z,45.64
2022-08-30T00:48:02.082Z,45.95
2022-08-30T00:50:36.196Z,45.75
2022-08-30T00:53:08.894Z,46.86
2022-08-30T00:55:39.106Z,46.21
2022-08-30T00:58:19.982Z,45.75
2022-08-30T01:00:50.092Z,46.10
2022-08-30T01:03:18.803Z,45.45
2022-08-30T01:05:49.739Z,45.85
2022-08-30T01:08:18.466Z,45.80
2022-08-30T01:10:48.549Z,46.12
2022-08-30T01:13:17.727Z,45.94
2022-08-30T01:15:47.157Z,46.80
2022-08-30T01:18:17.473Z,47.15
2022-08-30T01:20:56.224Z,48.06
2022-08-30T01:23:27.153Z,48.05
2022-08-30T01:25:57.434Z,48.01
2022-08-30T01:28:28.472Z,48.09
2022-08-30T01:30:57.367Z,47.85
2022-08-30T01:33:26.505Z,48.13
2022-08-30T01:35:57.974Z,47.53
2022-08-30T01:38:32.075Z,47.71
2022-08-30T01:41:01.968Z,47.73
2022-08-30T01:43:30.456Z,48.26
2022-08-30T01:45:58.970Z,48.89
2022-08-30T01:48:31.258Z,48.85
2022-08-30T01:51:00.241Z,49.34
2022-08-30T01:53:30.604Z,49.62
2022-08-30T01:55:59.364Z,49.84
2022-08-30T01:58:28.592Z,49.91
2022-08-30T02:00:57.537Z,49.92
2022-08-30T02:03:30.546Z,50.02
2022-08-30T02:05:59.010Z,50.18
2022-08-30T02:08:28.912Z,49.98
2022-08-30T02:10:59.357Z,50.21
2022-08-30T02:13:27.983Z,50.41
2022-08-30T02:15:56.665Z,50.43
2022-08-30T02:18:27.275Z,50.57
2022-08-30T02:20:55.821Z,50.46
2022-08-30T02:23:24.194Z,50.69
2022-08-30T02:25:54.702Z,50.77
2022-08-30T02:28:23.502Z,50.82
2022-08-30T02:30:53.658Z,50.89
2022-08-30T02:33:22.177Z,51.08
2022-08-30T02:35:50.664Z,51.39
2022-08-30T02:38:20.203Z,51.44
2022-08-30T02:40:49.055Z,51.55
2022-08-30T02:43:20.299Z,51.73
2022-08-30T02:45:49.007Z,51.97
2022-08-30T02:48:17.539Z,52.28
2022-08-30T02:50:49.148Z,52.44
2022-08-30T02:53:18.286Z,52.60
2022-08-30T02:55:46.916Z,52.70
2022-08-30T02:58:15.445Z,52.89
2022-08-30T03:00:45.394Z,53.22
2022-08-30T03:03:14.033Z,53.53
2022-08-30T03:05:42.596Z,53.61
2022-08-30T03:08:11.425Z,54.02
2022-08-30T03:10:39.934Z,54.56
2022-08-30T03:13:09.044Z,54.59
2022-08-30T03:15:40.547Z,54.79
2022-08-30T03:18:11.169Z,55.15
2022-08-30T03:20:39.777Z,55.04
2022-08-30T03:23:10.425Z,55.21
2022-08-30T03:25:50.120Z,55.30
2022-08-30T03:28:19.236Z,55.27
2022-08-30T03:30:48.161Z,55.48
2022-08-30T03:33:18.722Z,55.42
2022-08-30T03:35:50.342Z,55.56
2022-08-30T03:38:19.107Z,55.81
2022-08-30T03:40:48.258Z,55.61
2022-08-30T03:43:16.880Z,55.76
2022-08-30T03:45:45.936Z,55.95
2022-08-30T03:48:14.423Z,55.95
2022-08-30T03:50:44.167Z,56.19
2022-08-30T03:53:13.245Z,56.15
2022-08-30T03:55:41.754Z,56.46
2022-08-30T03:58:10.244Z,56.34
2022-08-30T04:00:38.786Z,56.46
2022-08-30T04:03:07.441Z,56.41
2022-08-30T04:05:35.920Z,56.52
2022-08-30T04:08:06.349Z,56.61
2022-08-30T04:10:35.279Z,56.80
2022-08-30T04:13:04.175Z,57.02
2022-08-30T04:15:32.577Z,57.13
2022-08-30T04:18:00.974Z,57.27
2022-08-30T04:20:29.493Z,57.38
2022-08-30T04:22:57.907Z,57.38
2022-08-30T04:25:27.961Z,57.88
2022-08-30T04:27:56.576Z,58.22
2022-08-30T04:30:25.057Z,58.51
2022-08-30T04:32:58.091Z,58.82
2022-08-30T04:35:27.685Z,58.73
2022-08-30T04:37:56.149Z,59.05
2022-08-30T04:40:24.618Z,59.15
2022-08-30T04:42:54.622Z,59.18
2022-08-30T04:45:23.875Z,59.35
2022-08-30T04:47:52.357Z,59.02
2022-08-30T04:50:22.635Z,59.25
2022-08-30T04:52:51.132Z,59.12
2022-08-30T04:55:20.489Z,59.42
2022-08-30T04:57:49.456Z,59.10
2022-08-30T05:00:20.691Z,59.18
2022-08-30T05:02:50.585Z,59.24
2022-08-30T05:05:37.146Z,59.25
2022-08-30T05:08:06.183Z,59.34
2022-08-30T05:10:35.817Z,59.53
2022-08-30T05:13:04.227Z,59.51
2022-08-30T05:15:34.146Z,59.64
2022-08-30T05:18:03.125Z,59.51
2022-08-30T05:20:31.725Z,59.68
2022-08-30T05:23:00.396Z,59.30
2022-08-30T05:25:32.314Z,59.09
2022-08-30T05:28:00.998Z,58.99
2022-08-30T05:30:34.979Z,59.71
2022-08-30T05:33:04.014Z,59.87
2022-08-30T05:35:32.795Z,59.63
2022-08-30T05:38:01.177Z,59.56
2022-08-30T05:40:29.704Z,59.63
2022-08-30T05:42:58.142Z,60.00
2022-08-30T05:45:26.556Z,59.87
2022-08-30T05:47:56.471Z,60.08
2022-08-30T05:50:24.965Z,59.85
2022-08-30T05:52:53.453Z,60.02
2022-08-30T05:55:22.330Z,60.02
2022-08-30T05:57:50.784Z,59.94
2022-08-30T06:00:20.753Z,60.33
2022-08-30T06:02:49.255Z,60.22
2022-08-30T06:05:19.550Z,60.13
2022-08-30T06:07:47.945Z,59.92
2022-08-30T06:10:16.861Z,59.17
2022-08-30T06:12:45.759Z,59.00
2022-08-30T06:15:14.501Z,58.78
2022-08-30T06:17:43.621Z,58.60
2022-08-30T06:20:14.132Z,58.52
2022-08-30T06:22:43.903Z,58.42
2022-08-30T06:25:14.321Z,58.33
2022-08-30T06:27:42.899Z,58.27
2022-08-30T06:30:12.416Z,58.01
2022-08-30T06:32:40.925Z,57.66
2022-08-30T06:35:10.428Z,57.60
2022-08-30T06:37:38.837Z,57.17
2022-08-30T06:40:11.215Z,56.85
2022-08-30T06:42:39.691Z,55.30
2022-08-30T06:45:10.994Z,53.50
2022-08-30T06:47:40.847Z,50.21
2022-08-30T06:50:12.242Z,49.21
2022-08-30T06:52:42.348Z,46.47
2022-08-30T06:55:15.646Z,45.48
2022-08-30T06:57:44.518Z,45.10
2022-08-30T07:00:16.645Z,45.34
2022-08-30T07:02:45.147Z,44.46
2022-08-30T07:05:18.160Z,43.42
2022-08-30T07:07:47.435Z,43.53
2022-08-30T07:10:17.538Z,43.12
2022-08-30T07:12:46.119Z,42.53
2022-08-30T07:15:15.034Z,41.93
2022-08-30T07:18:00.852Z,41.75
2022-08-30T07:20:39.816Z,41.74
2022-08-30T07:23:09.391Z,42.16
2022-08-30T07:25:40.443Z,41.66
2022-08-30T07:28:10.320Z,41.91
2022-08-30T07:30:39.067Z,42.11
2022-08-30T07:33:07.674Z,41.94
2022-08-30T07:35:37.295Z,41.23
2022-08-30T07:38:05.742Z,39.92
2022-08-30T07:40:34.224Z,39.18
2022-08-30T07:43:04.134Z,38.19
2022-08-30T07:45:32.580Z,37.89
2022-08-30T07:48:04.752Z,36.57
2022-08-30T07:50:33.142Z,36.92
2022-08-30T07:53:01.582Z,37.31
2022-08-30T07:55:29.986Z,38.10
2022-08-30T07:57:58.901Z,37.26
2022-08-30T08:00:28.822Z,37.47
2022-08-30T08:02:57.297Z,37.23
2022-08-30T08:05:25.762Z,36.90
2022-08-30T08:07:54.115Z,37.43
2022-08-30T08:10:23.016Z,37.51
2022-08-30T08:12:52.219Z,36.12
2022-08-30T08:15:20.804Z,35.52
2022-08-30T08:17:50.599Z,35.18
2022-08-30T08:20:19.203Z,36.53
2022-08-30T08:22:47.594Z,36.19
2022-08-30T08:25:16.374Z,35.93
2022-08-30T08:27:44.790Z,35.99
2022-08-30T08:30:14.614Z,36.43
2022-08-30T08:32:43.041Z,36.10
2022-08-30T08:35:13.190Z,36.08
2022-08-30T08:37:41.942Z,35.63
2022-08-30T08:40:15.724Z,35.66
2022-08-30T08:43:00.592Z,34.90
2022-08-30T08:45:43.385Z,35.11
2022-08-30T08:48:28.832Z,34.96
2022-08-30T08:51:21.265Z,34.20
2022-08-30T08:53:57.648Z,33.65
2022-08-30T08:56:26.373Z,34.90
2022-08-30T08:58:57.448Z,35.02
2022-08-30T09:01:30.159Z,34.41
2022-08-30T09:04:02.907Z,34.15
2022-08-30T09:06:50.199Z,34.61
2022-08-30T09:09:23.120Z,33.91
2022-08-30T09:11:51.645Z,34.61
2022-08-30T09:14:25.176Z,35.99
2022-08-30T09:17:03.218Z,35.35
2022-08-30T09:19:42.704Z,35.22
2022-08-30T09:22:36.123Z,34.78
2022-08-30T09:25:08.661Z,33.64
2022-08-30T09:27:39.016Z,33.57
2022-08-30T09:30:14.966Z,33.46
2022-08-30T09:32:51.458Z,33.47
2022-08-30T09:35:22.708Z,33.17
2022-08-30T09:37:57.820Z,32.86
2022-08-30T09:40:30.562Z,32.28
2022-08-30T09:43:07.882Z,33.10
2022-08-30T09:45:40.595Z,32.47
2022-08-30T09:48:40.551Z,32.23
2022-08-30T09:51:40.215Z,31.57
2022-08-30T09:54:20.732Z,31.69
2022-08-30T09:57:11.670Z,30.68
2022-08-30T09:59:48.222Z,30.00
2022-08-30T10:02:42.354Z,29.33
2022-08-30T10:05:20.123Z,29.76
2022-08-30T10:08:00.088Z,30.27
2022-08-30T10:10:40.880Z,29.91
2022-08-30T10:13:56.774Z,29.84
2022-08-30T10:16:41.659Z,29.96
2022-08-30T10:19:29.639Z,29.26
2022-08-30T10:22:05.812Z,28.18
2022-08-30T10:24:40.398Z,28.39
2022-08-30T10:27:19.378Z,28.22
2022-08-30T10:29:55.454Z,28.03
2022-08-30T10:32:29.465Z,28.62
2022-08-30T10:35:14.286Z,27.85
2022-08-30T10:37:49.736Z,28.05
2022-08-30T10:40:44.557Z,28.10
2022-08-30T10:43:24.977Z,27.08
2022-08-30T10:46:01.347Z,27.03
2022-08-30T10:48:39.908Z,26.80
2022-08-30T10:51:19.690Z,26.11
2022-08-30T10:53:55.381Z,25.57
2022-08-30T10:56:26.994Z,25.05
2022-08-30T10:58:59.238Z,25.80
2022-08-30T11:01:46.533Z,26.27
2022-08-30T11:04:45.518Z,25.93
2022-08-30T11:07:28.300Z,26.23
2022-08-30T11:10:32.849Z,26.39
2022-08-30T11:13:05.269Z,26.34
2022-08-30T11:15:40.164Z,26.14
2022-08-30T11:18:15.226Z,26.08
2022-08-30T11:20:46.568Z,26.99
2022-08-30T11:23:30.527Z,27.00
2022-08-30T11:26:05.193Z,27.53
2022-08-30T11:29:07.751Z,26.21
2022-08-30T11:31:44.747Z,27.06
2022-08-30T11:34:55.172Z,27.40
2022-08-30T11:37:41.587Z,26.40
2022-08-30T11:40:48.308Z,26.29
2022-08-30T11:43:56.113Z,26.55
2022-08-30T11:46:40.187Z,26.42
2022-08-30T11:49:48.358Z,27.10
2022-08-30T11:52:35.383Z,26.69
2022-08-30T11:55:35.211Z,27.14
2022-08-30T11:58:31.283Z,29.49
2022-08-30T12:01:50.112Z,26.76
2022-08-30T12:04:37.554Z,26.88
2022-08-30T12:07:10.132Z,28.12
2022-08-30T12:10:03.340Z,26.40
2022-08-30T12:12:57.039Z,28.81
2022-08-30T12:15:58.269Z,28.40
2022-08-30T12:18:39.105Z,29.98
2022-08-30T12:21:28.168Z,29.40
2022-08-30T12:24:07.653Z,30.21
2022-08-30T12:26:39.445Z,30.34
2022-08-30T12:29:16.228Z,27.29
2022-08-30T12:31:49.217Z,28.50
2022-08-30T12:34:28.641Z,26.81
2022-08-30T12:37:03.014Z,27.27
2022-08-30T12:39:38.208Z,27.01
2022-08-30T12:42:17.914Z,30.04
2022-08-30T12:44:48.394Z,26.68
2022-08-30T12:47:21.384Z,30.19
2022-08-30T12:49:51.062Z,27.91
2022-08-30T12:52:35.197Z,29.62
2022-08-30T12:55:19.155Z,27.94
2022-08-30T12:58:01.015Z,27.71
2022-08-30T13:00:32.771Z,27.33
2022-08-30T13:03:16.306Z,27.43
2022-08-30T13:05:50.016Z,27.15
2022-08-30T13:08:25.412Z,28.27
2022-08-30T13:11:08.302Z,28.20
2022-08-30T13:13:44.400Z,29.90
2022-08-30T13:16:25.403Z,29.56
2022-08-30T13:18:57.572Z,28.34
2022-08-30T13:21:31.028Z,27.92
2022-08-30T13:24:02.058Z,29.23
2022-08-30T13:26:35.474Z,27.49
2022-08-30T13:29:10.323Z,27.39
2022-08-30T13:31:39.427Z,28.39
2022-08-30T13:34:09.267Z,27.79
2022-08-30T13:36:45.831Z,26.88
2022-08-30T13:39:16.632Z,29.55
2022-08-30T13:41:51.532Z,29.81
2022-08-30T13:44:20.418Z,28.03
2022-08-30T13:46:54.428Z,30.28
2022-08-30T13:52:22.853Z,26.98
2022-08-30T13:54:52.886Z,28.18
2022-08-30T14:00:19.706Z,29.57
2022-08-30T14:02:54.691Z,31.34
2022-08-30T14:11:06.857Z,31.05
2022-08-30T14:13:37.425Z,29.28
2022-08-30T14:18:58.787Z,28.35
2022-08-30T14:21:27.797Z,28.09
2022-08-30T14:23:57.697Z,29.70
2022-08-30T14:26:32.517Z,29.85
2022-08-30T14:29:05.510Z,29.58
2022-08-30T14:31:38.618Z,28.47
2022-08-30T14:34:09.200Z,28.44
2022-08-30T14:36:42.980Z,29.46
2022-08-30T14:39:15.242Z,28.62
2022-08-30T14:41:47.529Z,27.82
2022-08-30T14:44:19.395Z,27.93
2022-08-30T14:46:48.890Z,30.28
2022-08-30T14:49:20.734Z,29.35
2022-08-30T14:51:50.152Z,28.50
2022-08-30T14:54:23.225Z,29.22
2022-08-30T14:56:54.417Z,29.97
2022-08-30T14:59:25.211Z,29.94
2022-08-30T15:01:54.325Z,28.73
2022-08-30T15:04:23.082Z,28.43
2022-08-30T15:06:52.085Z,27.78
2022-08-30T15:09:23.875Z,27.41
2022-08-30T15:11:55.108Z,27.40
2022-08-30T15:14:26.393Z,28.73
2022-08-30T15:16:58.371Z,27.66
2022-08-30T15:19:27.837Z,27.64
2022-08-30T15:22:02.743Z,27.63
2022-08-30T15:24:32.419Z,27.19
2022-08-30T15:27:02.229Z,27.85
2022-08-30T15:29:32.284Z,27.87
2022-08-30T15:32:02.176Z,30.23
2022-08-30T15:34:31.547Z,28.97
2022-08-30T15:37:00.255Z,30.00
2022-08-30T15:39:29.145Z,28.75
2022-08-30T15:42:01.193Z,30.39
2022-08-30T15:44:31.799Z,29.24
2022-08-30T15:47:00.557Z,28.72
2022-08-30T15:49:29.818Z,29.09
2022-08-30T15:52:02.343Z,27.81
2022-08-30T15:54:31.954Z,28.01
2022-08-30T15:57:01.418Z,28.71
2022-08-30T15:59:32.950Z,27.88
2022-08-30T16:02:01.562Z,30.19
2022-08-30T16:04:30.062Z,31.29
2022-08-30T16:06:58.758Z,31.26
2022-08-30T16:09:29.980Z,29.54
2022-08-30T16:12:01.638Z,29.21
2022-08-30T16:14:30.133Z,31.41
2022-08-30T16:17:00.751Z,29.33
2022-08-30T16:19:29.623Z,29.03
2022-08-30T16:21:58.541Z,29.32
2022-08-30T16:24:27.768Z,28.88
2022-08-30T16:26:56.338Z,30.20
2022-08-30T16:29:24.720Z,31.94
2022-08-30T16:31:53.154Z,30.12
2022-08-30T16:34:23.453Z,31.95
2022-08-30T16:36:54.442Z,32.30
2022-08-30T16:39:22.861Z,31.72
2022-08-30T16:41:51.312Z,30.01
2022-08-30T16:44:19.753Z,29.93
2022-08-30T16:46:52.572Z,31.67
2022-08-30T16:49:25.407Z,30.60
2022-08-30T16:51:54.457Z,30.82
2022-08-30T16:54:23.708Z,32.98
2022-08-30T16:56:52.798Z,30.68
2022-08-30T16:59:21.222Z,31.65
2022-08-30T17:01:50.468Z,30.26
2022-08-30T17:04:19.873Z,31.34
2022-08-30T17:06:51.078Z,31.75
2022-08-30T17:09:20.575Z,30.69
2022-08-30T17:11:49.823Z,31.49
2022-08-30T17:14:27.669Z,30.19
2022-08-30T17:16:58.357Z,31.30
2022-08-30T17:19:29.376Z,32.41
2022-08-30T17:21:59.493Z,31.60
2022-08-30T17:24:28.571Z,32.38
2022-08-30T17:26:58.164Z,31.73
2022-08-30T17:29:27.287Z,33.10
2022-08-30T17:31:55.963Z,33.07
2022-08-30T17:34:27.216Z,32.48
2022-08-30T17:36:59.961Z,31.35
2022-08-30T17:39:28.974Z,32.14
2022-08-30T17:41:57.675Z,31.11
2022-08-30T17:44:29.715Z,30.92
2022-08-30T17:46:59.648Z,31.23
2022-08-30T17:49:30.293Z,32.57
2022-08-30T17:52:00.419Z,31.52
2022-08-30T17:54:31.707Z,32.08
2022-08-30T17:57:00.845Z,32.01
2022-08-30T17:59:31.714Z,32.01
2022-08-30T18:02:02.314Z,31.87
2022-08-30T18:04:31.507Z,32.98
2022-08-30T18:07:01.373Z,32.33
2022-08-30T18:09:33.811Z,33.55
2022-08-30T18:12:02.488Z,34.52
2022-08-30T18:14:31.452Z,34.33
2022-08-30T18:17:00.989Z,34.19
2022-08-30T18:19:32.156Z,33.23
2022-08-30T18:22:03.158Z,34.45
2022-08-30T18:24:32.643Z,33.99
2022-08-30T18:27:02.342Z,33.57
2022-08-30T18:29:32.174Z,33.69
2022-08-30T18:32:02.263Z,33.93
2022-08-30T18:34:31.145Z,33.68
2022-08-30T18:37:01.343Z,34.38
2022-08-30T18:39:34.434Z,33.87
2022-08-30T18:42:03.848Z,34.08
2022-08-30T18:44:33.375Z,34.15
2022-08-30T18:47:05.638Z,34.23
2022-08-30T18:49:36.925Z,34.82
2022-08-30T18:52:09.831Z,34.75
2022-08-30T18:54:49.721Z,34.67
2022-08-30T18:57:20.924Z,34.44
2022-08-30T18:59:50.669Z,35.18
2022-08-30T19:02:19.650Z,35.39
2022-08-30T19:04:49.208Z,34.95
2022-08-30T19:07:20.100Z,35.29
2022-08-30T19:09:48.918Z,35.39
2022-08-30T19:12:19.712Z,35.80
2022-08-30T19:14:49.468Z,35.54
2022-08-30T19:17:17.874Z,35.75
2022-08-30T19:19:49.201Z,36.08
2022-08-30T19:22:27.436Z,35.86
2022-08-30T19:24:58.797Z,36.10
2022-08-30T19:27:38.040Z,35.95
2022-08-30T19:30:13.521Z,36.35
2022-08-30T19:32:44.729Z,36.43
2022-08-30T19:35:16.434Z,36.49
2022-08-30T19:37:47.759Z,36.47
2022-08-30T19:40:19.715Z,36.63
2022-08-30T19:42:50.495Z,36.82
2022-08-30T19:45:22.731Z,36.82
2022-08-30T19:47:53.297Z,37.57
2022-08-30T19:50:22.951Z,37.00
2022-08-30T19:52:54.960Z,37.47
2022-08-30T19:55:28.581Z,37.65
2022-08-30T19:57:58.594Z,37.38
2022-08-30T20:00:27.214Z,37.51
2022-08-30T20:02:59.386Z,37.80
2022-08-30T20:05:27.879Z,37.64
2022-08-30T20:07:58.358Z,37.65
2022-08-30T20:10:27.365Z,37.73
2022-08-30T20:12:55.962Z,37.98
2022-08-30T20:15:25.763Z,38.15
2022-08-30T20:18:13.449Z,38.48
2022-08-30T20:20:49.914Z,38.21
2022-08-30T20:23:21.726Z,38.64
2022-08-30T20:25:52.058Z,38.79
2022-08-30T20:28:21.843Z,38.70
2022-08-30T20:30:50.693Z,38.79
2022-08-30T20:33:19.625Z,38.81
2022-08-30T20:35:49.774Z,39.00
2022-08-30T20:38:21.956Z,39.00
2022-08-30T20:40:53.409Z,39.18
2022-08-30T20:43:24.696Z,39.21
2022-08-30T20:45:55.367Z,39.09
2022-08-30T20:48:26.155Z,39.07
2022-08-30T20:50:54.761Z,39.27
2022-08-30T20:53:24.750Z,39.35
2022-08-30T20:55:53.240Z,39.74
2022-08-30T20:58:21.723Z,39.59
2022-08-30T21:00:54.413Z,39.48
2022-08-30T21:03:25.949Z,39.80
2022-08-30T21:05:57.294Z,39.70
2022-08-30T21:08:27.605Z,39.95
2022-08-30T21:10:56.865Z,39.84
2022-08-30T21:13:25.517Z,40.22
2022-08-30T21:15:55.370Z,40.29
2022-08-30T21:18:31.160Z,40.11
2022-08-30T21:21:00.090Z,40.44
2022-08-30T21:23:29.978Z,40.49
2022-08-30T21:26:05.080Z,40.47
2022-08-30T21:28:34.177Z,40.78
2022-08-30T21:31:08.638Z,40.54
2022-08-30T21:33:37.611Z,40.48
2022-08-30T21:36:24.477Z,40.71
2022-08-30T21:38:57.516Z,40.79
2022-08-30T21:41:31.626Z,40.81
2022-08-30T21:44:02.457Z,41.19
2022-08-30T21:46:32.780Z,41.25
2022-08-30T21:49:03.780Z,41.09
2022-08-30T21:51:35.718Z,41.11
2022-08-30T21:54:07.268Z,41.17
2022-08-30T21:56:36.820Z,41.14
2022-08-30T21:59:07.374Z,41.36
2022-08-30T22:01:37.764Z,41.24
2022-08-30T22:04:10.066Z,41.67
2022-08-30T22:06:41.787Z,41.57
2022-08-30T22:09:20.585Z,41.83
2022-08-30T22:11:50.026Z,41.84
2022-08-30T22:14:20.095Z,42.17
2022-08-30T22:16:48.895Z,41.88
2022-08-30T22:19:22.390Z,42.10
2022-08-30T22:21:51.928Z,42.30
2022-08-30T22:24:23.685Z,42.32
2022-08-30T22:26:52.030Z,42.32
2022-08-30T22:29:20.443Z,42.34
2022-08-30T22:31:48.937Z,42.43
2022-08-30T22:34:17.821Z,42.66
2022-08-30T22:36:46.329Z,42.81
2022-08-30T22:39:14.828Z,43.00
2022-08-30T22:41:44.881Z,43.13
2022-08-30T22:44:13.676Z,43.57
2022-08-30T22:46:42.120Z,43.66
2022-08-30T22:49:12.196Z,44.02
2022-08-30T22:51:42.699Z,43.80
2022-08-30T22:54:12.065Z,44.39
2022-08-30T22:56:40.723Z,44.00
2022-08-30T22:59:10.586Z,44.60
2022-08-30T23:01:43.317Z,44.23
2022-08-30T23:04:13.409Z,44.38
2022-08-30T23:06:41.993Z,43.94
2022-08-30T23:09:18.438Z,43.96
2022-08-30T23:11:46.871Z,44.33
2022-08-30T23:14:16.792Z,44.81
2022-08-30T23:16:45.250Z,45.13
2022-08-30T23:19:13.931Z,45.35
2022-08-30T23:21:42.656Z,45.45
2022-08-30T23:24:28.647Z,45.61
2022-08-30T23:27:14.397Z,45.54
2022-08-30T23:30:01.776Z,45.79
2022-08-30T23:32:47.856Z,45.94
2022-08-30T23:35:33.890Z,46.08
2022-08-30T23:38:23.839Z,46.10
2022-08-30T23:41:09.897Z,46.23
2022-08-30T23:43:56.174Z,46.21
2022-08-30T23:46:43.421Z,46.41
2022-08-30T23:49:29.126Z,46.49
2022-08-30T23:52:15.016Z,46.52
2022-08-30T23:55:00.793Z,46.63
2022-08-30T23:57:47.149Z,46.51
